createdAt,value
2022-12-04T00:00:01.164Z,7.32
2022-12-04T00:02:27.714Z,6.53
2022-12-04T00:04:54.346Z,7.28
2022-12-04T00:07:20.951Z,7.22
2022-12-04T00:09:47.489Z,7.33
2022-12-04T00:12:14.006Z,7.40
2022-12-04T00:15:00.741Z,7.20
2022-12-04T00:17:27.051Z,7.72
2022-12-04T00:19:53.849Z,7.68
2022-12-04T00:22:21.184Z,7.20
2022-12-04T00:24:47.776Z,7.70
2022-12-04T00:27:14.402Z,7.97
2022-12-04T00:29:40.961Z,6.90
2022-12-04T00:32:07.644Z,8.05
2022-12-04T00:34:34.165Z,6.93
2022-12-04T00:37:00.740Z,7.32
2022-12-04T00:39:27.343Z,7.35
2022-12-04T00:41:53.852Z,7.30
2022-12-04T00:44:20.367Z,7.82
2022-12-04T00:46:46.894Z,8.00
2022-12-04T00:49:13.394Z,7.63
2022-12-04T00:51:39.892Z,7.93
2022-12-04T00:54:06.521Z,7.25
2022-12-04T00:56:33.067Z,8.07
2022-12-04T00:59:01.695Z,6.40
2022-12-04T01:01:29.533Z,6.18
2022-12-04T01:03:56.533Z,7.57
2022-12-04T01:06:26.925Z,6.88
2022-12-04T01:08:54.839Z,7.25
2022-12-04T01:11:22.986Z,6.87
2022-12-04T01:13:49.570Z,7.00
2022-12-04T01:16:22.721Z,7.35
2022-12-04T01:18:50.252Z,6.90
2022-12-04T01:21:18.206Z,6.25
2022-12-04T01:23:45.387Z,7.27
2022-12-04T01:26:12.655Z,7.60
2022-12-04T01:28:39.908Z,7.43
2022-12-04T01:31:13.260Z,7.07
2022-12-04T01:33:40.929Z,6.63
2022-12-04T01:36:10.843Z,7.47
2022-12-04T01:38:38.551Z,6.95
2022-12-04T01:41:06.267Z,6.68
2022-12-04T01:43:34.925Z,6.78
2022-12-04T01:46:02.960Z,7.07
2022-12-04T01:48:49.419Z,7.07
2022-12-04T01:51:48.236Z,7.07
2022-12-04T01:54:42.370Z,6.88
2022-12-04T01:57:12.864Z,7.43
2022-12-04T01:59:47.747Z,7.07
2022-12-04T02:02:22.462Z,7.33
2022-12-04T02:04:50.729Z,6.80
2022-12-04T02:07:17.325Z,6.80
2022-12-04T02:09:45.459Z,6.25
2022-12-04T02:12:14.691Z,7.30
2022-12-04T02:15:02.688Z,6.60
2022-12-04T02:17:44.139Z,6.95
2022-12-04T02:20:13.799Z,6.40
2022-12-04T02:22:58.944Z,7.65
2022-12-04T02:25:54.360Z,6.85
2022-12-04T02:28:26.715Z,5.80
2022-12-04T02:30:59.486Z,7.25
2022-12-04T02:33:34.263Z,7.30
2022-12-04T02:36:15.604Z,6.95
2022-12-04T02:38:46.520Z,6.55
2022-12-04T02:41:23.099Z,6.83
2022-12-04T02:43:53.967Z,7.90
2022-12-04T02:46:29.117Z,6.72
2022-12-04T02:49:00.162Z,7.05
2022-12-04T02:51:30.964Z,6.75
2022-12-04T02:54:04.654Z,6.07
2022-12-04T02:56:37.504Z,6.07
2022-12-04T02:59:16.288Z,6.65
2022-12-04T03:01:49.074Z,6.60
2022-12-04T03:04:22.576Z,7.28
2022-12-04T03:06:55.058Z,8.10
2022-12-04T03:09:43.089Z,6.38
2022-12-04T03:12:18.440Z,7.60
2022-12-04T03:14:54.462Z,7.57
2022-12-04T03:17:37.382Z,7.05
2022-12-04T03:20:09.891Z,6.87
2022-12-04T03:22:40.837Z,7.88
2022-12-04T03:25:08.945Z,8.18
2022-12-04T03:27:50.675Z,7.57
2022-12-04T03:30:22.512Z,7.80
2022-12-04T03:32:59.734Z,8.90
2022-12-04T03:35:40.002Z,7.72
2022-12-04T03:38:11.086Z,8.35
2022-12-04T03:40:40.639Z,8.38
2022-12-04T03:43:19.905Z,8.35
2022-12-04T03:45:58.965Z,7.97
2022-12-04T03:48:39.298Z,8.63
2022-12-04T03:51:34.262Z,8.52
2022-12-04T03:54:16.288Z,8.80
2022-12-04T03:56:55.156Z,8.43
2022-12-04T03:59:31.035Z,8.27
2022-12-04T04:02:00.256Z,8.50
2022-12-04T04:04:32.404Z,8.23
2022-12-04T04:07:14.225Z,9.02
2022-12-04T04:09:45.490Z,8.82
2022-12-04T04:12:16.852Z,9.50
2022-12-04T04:15:09.424Z,8.88
2022-12-04T04:17:59.633Z,8.90
2022-12-04T04:20:55.187Z,9.48
2022-12-04T04:23:42.183Z,9.93
2022-12-04T04:26:11.271Z,8.97
2022-12-04T04:28:39.889Z,9.60
2022-12-04T04:31:30.600Z,8.52
2022-12-04T04:34:18.844Z,10.55
2022-12-04T04:36:58.095Z,9.90
2022-12-04T04:39:33.975Z,10.33
2022-12-04T04:42:43.522Z,9.73
2022-12-04T04:45:12.935Z,11.05
2022-12-04T04:47:47.414Z,9.82
2022-12-04T04:50:16.229Z,9.93
2022-12-04T04:52:48.183Z,10.60
2022-12-04T04:55:17.787Z,9.77
2022-12-04T04:57:44.363Z,8.40
2022-12-04T05:00:15.272Z,10.52
2022-12-04T05:02:42.034Z,9.63
2022-12-04T05:05:09.112Z,10.80
2022-12-04T05:07:35.676Z,11.35
2022-12-04T05:10:02.220Z,11.23
2022-12-04T05:12:28.752Z,9.93
2022-12-04T05:14:55.326Z,9.50
2022-12-04T05:17:21.891Z,11.73
2022-12-04T05:19:54.985Z,11.43
2022-12-04T05:22:28.638Z,10.68
2022-12-04T05:24:55.387Z,11.32
2022-12-04T05:27:22.578Z,11.50
2022-12-04T05:29:49.161Z,10.50
2022-12-04T05:32:15.966Z,11.45
2022-12-04T05:34:42.592Z,12.20
2022-12-04T05:37:09.154Z,11.48
2022-12-04T05:39:35.777Z,12.00
2022-12-04T05:42:02.382Z,11.23
2022-12-04T05:44:28.892Z,10.50
2022-12-04T05:46:55.462Z,11.20
2022-12-04T05:49:21.993Z,12.48
2022-12-04T05:51:50.551Z,12.50
2022-12-04T05:54:18.534Z,11.87
2022-12-04T05:57:03.488Z,11.57
2022-12-04T05:59:30.185Z,12.75
2022-12-04T06:01:56.726Z,9.07
2022-12-04T06:04:23.611Z,11.70
2022-12-04T06:06:50.146Z,11.17
2022-12-04T06:09:16.656Z,11.70
2022-12-04T06:11:43.615Z,10.75
2022-12-04T06:14:13.765Z,11.93
2022-12-04T06:16:47.237Z,11.15
2022-12-04T06:19:19.077Z,11.87
2022-12-04T06:21:47.841Z,11.63
2022-12-04T06:24:20.911Z,13.35
2022-12-04T06:27:18.767Z,11.48
2022-12-04T06:29:34.620Z,11.27
2022-12-04T06:32:01.271Z,13.17
2022-12-04T06:34:28.182Z,11.70
2022-12-04T06:36:54.904Z,13.77
2022-12-04T06:39:21.491Z,13.02
2022-12-04T06:41:48.059Z,11.63
2022-12-04T06:44:15.594Z,13.43
2022-12-04T06:47:01.161Z,12.07
2022-12-04T06:49:28.409Z,12.77
2022-12-04T06:51:54.903Z,11.75
2022-12-04T06:54:21.405Z,12.45
2022-12-04T06:56:49.143Z,12.57
2022-12-04T06:59:15.777Z,13.70
2022-12-04T07:01:42.415Z,12.77
2022-12-04T07:04:09.202Z,13.90
2022-12-04T07:06:38.145Z,14.10
2022-12-04T07:09:14.350Z,12.70
2022-12-04T07:11:42.061Z,11.68
2022-12-04T07:14:08.932Z,12.93
2022-12-04T07:16:40.280Z,13.82
2022-12-04T07:19:08.528Z,13.45
2022-12-04T07:21:35.083Z,12.43
2022-12-04T07:24:02.206Z,12.63
2022-12-04T07:26:29.851Z,13.43
2022-12-04T07:28:57.748Z,12.50
2022-12-04T07:31:25.909Z,13.50
2022-12-04T07:33:54.059Z,11.67
2022-12-04T07:36:22.699Z,13.65
2022-12-04T07:38:49.330Z,13.27
2022-12-04T07:41:16.284Z,12.35
2022-12-04T07:43:43.165Z,14.10
2022-12-04T07:46:16.183Z,12.23
2022-12-04T07:48:43.284Z,13.25
2022-12-04T07:51:15.734Z,13.77
2022-12-04T07:53:43.147Z,13.13
2022-12-04T07:56:11.494Z,13.27
2022-12-04T07:58:38.940Z,11.87
2022-12-04T08:01:14.141Z,13.23
2022-12-04T08:03:47.611Z,11.00
2022-12-04T08:06:19.951Z,12.18
2022-12-04T08:08:47.558Z,13.38
2022-12-04T08:11:17.109Z,11.17
2022-12-04T08:13:44.278Z,14.10
2022-12-04T08:16:11.947Z,11.45
2022-12-04T08:18:38.939Z,13.68
2022-12-04T08:21:11.043Z,12.25
2022-12-04T08:23:39.264Z,13.37
2022-12-04T08:26:06.687Z,11.95
2022-12-04T08:28:34.110Z,12.02
2022-12-04T08:31:29.000Z,10.75
2022-12-04T08:33:57.593Z,11.50
2022-12-04T08:36:24.818Z,11.07
2022-12-04T08:38:52.306Z,10.23
2022-12-04T08:41:21.684Z,10.20
2022-12-04T08:43:48.264Z,11.63
2022-12-04T08:46:16.691Z,11.02
2022-12-04T08:48:44.347Z,10.77
2022-12-04T08:51:16.895Z,11.77
2022-12-04T08:53:43.604Z,11.07
2022-12-04T08:56:10.290Z,11.68
2022-12-04T08:58:38.108Z,12.35
2022-12-04T09:01:10.354Z,10.37
2022-12-04T09:03:37.362Z,12.13
2022-12-04T09:06:05.227Z,11.45
2022-12-04T09:08:32.627Z,11.77
2022-12-04T09:11:07.392Z,11.20
2022-12-04T09:13:34.995Z,9.93
2022-12-04T09:16:05.267Z,11.10
2022-12-04T09:18:34.561Z,10.93
2022-12-04T09:21:03.979Z,10.98
2022-12-04T09:23:30.989Z,10.80
2022-12-04T09:25:57.606Z,11.27
2022-12-04T09:28:24.201Z,11.23
2022-12-04T09:31:01.862Z,11.40
2022-12-04T09:33:28.630Z,10.27
2022-12-04T09:35:55.183Z,9.82
2022-12-04T09:38:21.836Z,11.53
2022-12-04T09:40:54.184Z,10.00
2022-12-04T09:43:42.593Z,10.40
2022-12-04T09:46:23.722Z,9.40
2022-12-04T09:48:51.275Z,10.93
2022-12-04T09:51:21.814Z,11.50
2022-12-04T09:54:09.993Z,9.85
2022-12-04T09:56:36.491Z,9.18
2022-12-04T09:59:05.710Z,12.25
2022-12-04T10:01:41.813Z,11.15
2022-12-04T10:04:10.767Z,9.53
2022-12-04T10:07:14.511Z,9.98
2022-12-04T10:09:50.891Z,9.32
2022-12-04T10:12:47.197Z,10.30
2022-12-04T10:15:29.661Z,10.95
2022-12-04T10:18:13.911Z,8.77
2022-12-04T10:21:05.229Z,9.80
2022-12-04T10:23:43.776Z,9.82
2022-12-04T10:26:16.046Z,10.85
2022-12-04T10:28:54.848Z,10.70
2022-12-04T10:31:22.248Z,10.33
2022-12-04T10:34:12.562Z,9.63
2022-12-04T10:36:39.960Z,9.68
2022-12-04T10:39:14.926Z,8.85
2022-12-04T10:42:03.711Z,9.38
2022-12-04T10:44:30.206Z,8.50
2022-12-04T10:47:03.322Z,10.32
2022-12-04T10:49:34.207Z,9.57
2022-12-04T10:52:00.966Z,9.75
2022-12-04T10:54:43.281Z,10.65
2022-12-04T10:57:12.060Z,10.93
2022-12-04T10:59:53.932Z,8.52
2022-12-04T11:02:24.377Z,7.93
2022-12-04T11:05:12.528Z,10.43
2022-12-04T11:07:47.762Z,9.80
2022-12-04T11:10:23.855Z,9.93
2022-12-04T11:13:14.076Z,10.60
2022-12-04T11:15:48.616Z,10.40
2022-12-04T11:18:31.208Z,9.80
2022-12-04T11:21:00.955Z,10.10
2022-12-04T11:23:32.095Z,9.97
2022-12-04T11:26:05.533Z,10.23
2022-12-04T11:28:41.609Z,9.90
2022-12-04T11:31:11.748Z,10.07
2022-12-04T11:33:47.055Z,11.18
2022-12-04T11:36:37.331Z,11.60
2022-12-04T11:39:30.015Z,11.13
2022-12-04T11:42:25.107Z,9.52
2022-12-04T11:45:18.873Z,9.38
2022-12-04T11:47:58.048Z,10.52
2022-12-04T11:50:42.801Z,10.53
2022-12-04T11:53:18.790Z,10.23
2022-12-04T11:55:55.418Z,10.70
2022-12-04T11:58:32.489Z,10.27
2022-12-04T12:01:26.618Z,10.73
2022-12-04T12:04:14.270Z,10.27
2022-12-04T12:06:49.744Z,9.73
2022-12-04T12:09:55.746Z,11.65
2022-12-04T12:12:52.072Z,9.57
2022-12-04T12:15:42.651Z,9.77
2022-12-04T12:18:25.524Z,9.73
2022-12-04T12:21:08.675Z,10.18
2022-12-04T12:23:35.155Z,10.88
2022-12-04T12:26:19.167Z,9.95
2022-12-04T12:28:57.420Z,9.43
2022-12-04T12:31:42.625Z,7.43
2022-12-04T12:34:16.012Z,8.05
2022-12-04T12:36:50.100Z,7.78
2022-12-04T12:39:24.200Z,8.10
2022-12-04T12:41:53.822Z,9.07
2022-12-04T12:44:20.390Z,9.23
2022-12-04T12:46:58.853Z,8.77
2022-12-04T12:49:25.383Z,9.82
2022-12-04T12:51:56.919Z,9.85
2022-12-04T12:54:26.298Z,8.50
2022-12-04T12:57:06.204Z,9.67
2022-12-04T12:59:34.195Z,10.40
2022-12-04T13:02:13.145Z,9.68
2022-12-04T13:04:46.008Z,9.45
2022-12-04T13:07:15.550Z,6.90
2022-12-04T13:09:51.579Z,9.73
2022-12-04T13:12:20.477Z,9.43
2022-12-04T13:14:49.159Z,9.60
2022-12-04T13:17:36.569Z,11.15
2022-12-04T13:20:10.388Z,8.63
2022-12-04T13:22:56.433Z,8.97
2022-12-04T13:25:54.105Z,8.65
2022-12-04T13:28:42.581Z,6.95
2022-12-04T13:31:35.548Z,9.15
2022-12-04T13:34:04.909Z,9.80
2022-12-04T13:37:19.759Z,9.57
2022-12-04T13:40:20.470Z,8.95
2022-12-04T13:42:47.047Z,8.75
2022-12-04T13:45:27.948Z,9.95
2022-12-04T13:48:02.756Z,10.13
2022-12-04T13:50:34.835Z,8.40
2022-12-04T13:53:01.656Z,9.52
2022-12-04T13:55:35.725Z,9.93
2022-12-04T13:58:12.713Z,8.75
2022-12-04T14:00:42.751Z,9.63
2022-12-04T14:03:29.859Z,10.00
2022-12-04T14:05:56.950Z,9.52
2022-12-04T14:08:26.484Z,8.80
2022-12-04T14:11:01.564Z,9.55
2022-12-04T14:13:35.488Z,8.60
2022-12-04T14:16:10.172Z,9.17
2022-12-04T14:18:38.059Z,9.63
2022-12-04T14:21:05.761Z,10.00
2022-12-04T14:23:41.612Z,9.02
2022-12-04T14:27:10.124Z,8.65
2022-12-04T14:29:27.840Z,12.07
2022-12-04T14:31:56.306Z,8.50
2022-12-04T14:34:27.705Z,8.90
2022-12-04T14:36:55.862Z,8.82
2022-12-04T14:39:34.291Z,8.68
2022-12-04T14:42:23.560Z,7.67
2022-12-04T14:44:57.705Z,7.93
2022-12-04T14:47:46.039Z,6.97
2022-12-04T14:50:31.171Z,7.97
2022-12-04T14:53:24.085Z,7.65
2022-12-04T14:56:07.287Z,7.80
2022-12-04T14:58:37.052Z,6.57
2022-12-04T15:01:26.900Z,6.90
2022-12-04T15:03:59.025Z,8.07
2022-12-04T15:06:26.908Z,7.95
2022-12-04T15:09:20.763Z,8.33
2022-12-04T15:12:13.805Z,9.13
2022-12-04T15:14:42.672Z,7.93
2022-12-04T15:17:11.631Z,6.30
2022-12-04T15:19:39.267Z,8.32
2022-12-04T15:22:12.132Z,8.60
2022-12-04T15:24:39.114Z,7.65
2022-12-04T15:27:07.156Z,8.52
2022-12-04T15:29:35.429Z,7.80
2022-12-04T15:32:11.946Z,8.25
2022-12-04T15:34:55.831Z,7.80
2022-12-04T15:37:32.624Z,8.95
2022-12-04T15:40:00.025Z,8.82
2022-12-04T15:42:29.128Z,8.05
2022-12-04T15:45:22.695Z,8.90
2022-12-04T15:47:53.993Z,8.40
2022-12-04T15:50:28.953Z,7.63
2022-12-04T15:53:00.338Z,7.97
2022-12-04T15:55:32.679Z,7.82
2022-12-04T15:58:03.054Z,7.60
2022-12-04T16:00:38.689Z,8.80
2022-12-04T16:03:20.823Z,9.00
2022-12-04T16:05:47.983Z,8.02
2022-12-04T16:08:30.298Z,7.63
2022-12-04T16:11:05.933Z,8.30
2022-12-04T16:13:36.234Z,7.63
2022-12-04T16:16:13.968Z,7.93
2022-12-04T16:18:41.301Z,7.68
2022-12-04T16:21:15.433Z,8.13
2022-12-04T16:23:41.974Z,7.50
2022-12-04T16:26:13.470Z,7.33
2022-12-04T16:28:39.961Z,7.38
2022-12-04T16:31:06.906Z,5.35
2022-12-04T16:33:33.451Z,5.40
2022-12-04T16:35:59.961Z,6.28
2022-12-04T16:38:26.514Z,6.23
2022-12-04T16:40:53.219Z,6.10
2022-12-04T16:43:19.808Z,5.72
2022-12-04T16:45:53.142Z,6.25
2022-12-04T16:48:20.003Z,5.78
2022-12-04T16:50:47.120Z,4.00
2022-12-04T16:53:19.552Z,5.68
2022-12-04T16:55:48.859Z,5.80
2022-12-04T16:58:15.923Z,4.07
2022-12-04T17:00:44.775Z,3.22
2022-12-04T17:03:18.815Z,6.63
2022-12-04T17:05:45.386Z,4.97
2022-12-04T17:08:11.983Z,6.13
2022-12-04T17:10:38.529Z,5.53
2022-12-04T17:13:05.080Z,6.95
2022-12-04T17:15:31.637Z,6.33
2022-12-04T17:17:58.167Z,6.60
2022-12-04T17:20:24.855Z,4.53
2022-12-04T17:22:51.455Z,6.13
2022-12-04T17:25:18.107Z,5.97
2022-12-04T17:27:44.728Z,6.43
2022-12-04T17:30:12.851Z,6.15
2022-12-04T17:32:39.412Z,6.75
2022-12-04T17:35:08.007Z,6.45
2022-12-04T17:37:35.970Z,6.35
2022-12-04T17:40:02.486Z,6.07
2022-12-04T17:42:29.000Z,5.82
2022-12-04T17:44:55.908Z,6.10
2022-12-04T17:47:22.547Z,6.70
2022-12-04T17:49:49.353Z,5.93
2022-12-04T17:52:16.249Z,5.43
2022-12-04T17:54:42.973Z,5.65
2022-12-04T17:57:10.778Z,5.80
2022-12-04T17:59:37.397Z,6.18
2022-12-04T18:02:03.998Z,5.70
2022-12-04T18:04:30.568Z,4.63
2022-12-04T18:06:57.123Z,7.03
2022-12-04T18:09:23.658Z,5.88
2022-12-04T18:11:50.190Z,7.18
2022-12-04T18:14:19.374Z,6.40
2022-12-04T18:16:51.180Z,6.63
2022-12-04T18:19:17.728Z,6.60
2022-12-04T18:21:44.474Z,5.95
2022-12-04T18:24:11.425Z,7.10
2022-12-04T18:26:41.245Z,6.97
2022-12-04T18:29:08.967Z,6.80
2022-12-04T18:31:35.678Z,6.53
2022-12-04T18:34:02.294Z,6.55
2022-12-04T18:36:30.816Z,6.45
2022-12-04T18:39:00.720Z,6.45
2022-12-04T18:41:28.265Z,6.73
2022-12-04T18:43:55.107Z,6.82
2022-12-04T18:46:22.468Z,6.47
2022-12-04T18:48:52.531Z,6.38
2022-12-04T18:51:29.578Z,6.10
2022-12-04T18:54:07.047Z,5.60
2022-12-04T18:56:35.422Z,4.88
2022-12-04T18:59:06.270Z,5.47
2022-12-04T19:01:33.264Z,5.20
2022-12-04T19:04:02.899Z,5.25
2022-12-04T19:06:32.020Z,5.10
2022-12-04T19:09:00.754Z,5.55
2022-12-04T19:11:27.791Z,5.72
2022-12-04T19:13:54.780Z,6.13
2022-12-04T19:16:21.472Z,6.40
2022-12-04T19:18:48.158Z,6.27
2022-12-04T19:21:15.087Z,6.85
2022-12-04T19:23:44.864Z,6.82
2022-12-04T19:26:11.413Z,6.75
2022-12-04T19:28:38.084Z,6.93
2022-12-04T19:31:04.727Z,7.60
2022-12-04T19:33:31.369Z,6.35
2022-12-04T19:35:59.280Z,7.07
2022-12-04T19:38:26.368Z,5.25
2022-12-04T19:41:10.244Z,6.57
2022-12-04T19:43:42.503Z,6.63
2022-12-04T19:46:11.831Z,6.72
2022-12-04T19:48:39.125Z,6.78
2022-12-04T19:51:08.585Z,5.97
2022-12-04T19:53:54.517Z,6.80
2022-12-04T19:56:27.090Z,5.87
2022-12-04T19:58:56.428Z,5.70
2022-12-04T20:01:25.368Z,6.03
2022-12-04T20:03:52.341Z,6.32
2022-12-04T20:06:22.102Z,6.13
2022-12-04T20:08:56.571Z,6.90
2022-12-04T20:11:23.643Z,5.35
2022-12-04T20:13:53.983Z,6.18
2022-12-04T20:16:20.656Z,4.95
2022-12-04T20:18:47.379Z,5.82
2022-12-04T20:21:14.599Z,6.30
2022-12-04T20:23:49.389Z,6.50
2022-12-04T20:26:24.570Z,5.68
2022-12-04T20:28:52.231Z,6.10
2022-12-04T20:31:24.888Z,4.95
2022-12-04T20:33:53.476Z,5.50
2022-12-04T20:36:22.000Z,4.65
2022-12-04T20:38:49.783Z,4.75
2022-12-04T20:41:17.066Z,4.68
2022-12-04T20:43:43.920Z,4.57
2022-12-04T20:46:20.233Z,4.53
2022-12-04T20:48:50.262Z,4.07
2022-12-04T20:51:24.702Z,4.18
2022-12-04T20:53:52.738Z,5.43
2022-12-04T20:56:21.767Z,5.57
2022-12-04T20:58:48.381Z,4.90
2022-12-04T21:01:17.015Z,5.18
2022-12-04T21:03:44.494Z,5.43
2022-12-04T21:06:15.367Z,5.57
2022-12-04T21:08:58.586Z,5.82
2022-12-04T21:11:39.752Z,6.30
2022-12-04T21:14:29.976Z,5.10
2022-12-04T21:16:56.864Z,5.85
2022-12-04T21:19:23.997Z,5.15
2022-12-04T21:21:50.955Z,6.32
2022-12-04T21:24:20.595Z,5.10
2022-12-04T21:26:47.556Z,4.68
2022-12-04T21:29:15.249Z,4.88
2022-12-04T21:31:41.892Z,6.53
2022-12-04T21:34:11.469Z,6.18
2022-12-04T21:36:37.988Z,5.27
2022-12-04T21:39:04.978Z,6.03
2022-12-04T21:41:50.077Z,6.45
2022-12-04T21:44:19.067Z,6.40
2022-12-04T21:46:46.328Z,6.28
2022-12-04T21:49:14.115Z,6.70
2022-12-04T21:51:56.694Z,5.35
2022-12-04T21:54:24.204Z,6.05
2022-12-04T21:56:50.833Z,6.05
2022-12-04T21:59:17.508Z,6.32
2022-12-04T22:01:44.558Z,6.87
2022-12-04T22:04:11.215Z,6.75
2022-12-04T22:06:37.953Z,5.97
2022-12-04T22:09:08.184Z,6.45
2022-12-04T22:11:35.010Z,5.53
2022-12-04T22:14:01.775Z,6.50
2022-12-04T22:16:30.977Z,6.07
2022-12-04T22:18:59.268Z,6.43
2022-12-04T22:21:27.103Z,6.53
2022-12-04T22:23:58.132Z,6.70
2022-12-04T22:26:25.302Z,5.93
2022-12-04T22:28:52.299Z,6.85
2022-12-04T22:31:22.348Z,7.50
2022-12-04T22:33:53.053Z,7.28
2022-12-04T22:36:22.737Z,7.05
2022-12-04T22:39:08.932Z,6.43
2022-12-04T22:41:36.593Z,7.30
2022-12-04T22:44:03.555Z,7.10
2022-12-04T22:46:30.236Z,7.53
2022-12-04T22:48:58.402Z,6.90
2022-12-04T22:51:24.941Z,7.03
2022-12-04T22:53:53.951Z,6.75
2022-12-04T22:56:26.351Z,6.35
2022-12-04T22:58:54.028Z,6.53
2022-12-04T23:01:24.147Z,7.68
2022-12-04T23:03:51.569Z,7.30
2022-12-04T23:06:20.048Z,7.20
2022-12-04T23:08:47.433Z,7.72
2022-12-04T23:11:20.157Z,7.13
2022-12-04T23:13:52.045Z,7.07
2022-12-04T23:16:20.729Z,7.80
2022-12-04T23:18:48.282Z,7.63
2022-12-04T23:21:16.058Z,6.95
2022-12-04T23:23:45.154Z,8.07
2022-12-04T23:26:14.411Z,7.35
2022-12-04T23:28:41.288Z,7.80
2022-12-04T23:31:08.053Z,8.05
2022-12-04T23:33:34.964Z,7.70
2022-12-04T23:36:03.402Z,7.38
2022-12-04T23:38:31.036Z,8.10
2022-12-04T23:41:07.078Z,8.00
2022-12-04T23:43:34.973Z,7.13
2022-12-04T23:46:05.779Z,7.93
2022-12-04T23:48:35.623Z,7.03
2022-12-04T23:51:02.207Z,8.43
2022-12-04T23:53:28.909Z,7.20
2022-12-04T23:56:04.500Z,7.00
2022-12-04T23:58:32.411Z,7.63
